sensor_id;sensor_type;location;lat;lon;timestamp;temperature;humidity
24049;DHT22;12250;50.956;4.746;2023-09-30T00:01:45;11.30;99.90
24049;DHT22;12250;50.956;4.746;2023-09-30T00:04:11;11.30;99.90
24049;DHT22;12250;50.956;4.746;2023-09-30T00:06:37;11.30;99.90
24049;DHT22;12250;50.956;4.746;2023-09-30T00:09:03;11.40;99.90
24049;DHT22;12250;50.956;4.746;2023-09-30T00:11:29;11.40;99.90
24049;DHT22;12250;50.956;4.746;2023-09-30T00:13:54;11.40;99.90
24049;DHT22;12250;50.956;4.746;2023-09-30T00:16:20;11.40;99.90
24049;DHT22;12250;50.956;4.746;2023-09-30T00:18:45;11.40;99.90
24049;DHT22;12250;50.956;4.746;2023-09-30T00:21:12;11.50;99.90
24049;DHT22;12250;50.956;4.746;2023-09-30T00:23:37;11.50;99.90
24049;DHT22;12250;50.956;4.746;2023-09-30T00:26:03;11.40;99.90
24049;DHT22;12250;50.956;4.746;2023-09-30T00:28:30;11.40;99.90
24049;DHT22;12250;50.956;4.746;2023-09-30T00:30:56;11.40;99.90
24049;DHT22;12250;50.956;4.746;2023-09-30T00:33:22;11.40;99.90
24049;DHT22;12250;50.956;4.746;2023-09-30T00:35:48;11.30;99.90
24049;DHT22;12250;50.956;4.746;2023-09-30T00:38:14;11.30;99.90
24049;DHT22;12250;50.956;4.746;2023-09-30T00:40:47;11.30;99.90
24049;DHT22;12250;50.956;4.746;2023-09-30T00:43:19;11.30;99.90
24049;DHT22;12250;50.956;4.746;2023-09-30T00:45:45;11.30;99.90
24049;DHT22;12250;50.956;4.746;2023-09-30T00:48:11;11.30;99.90
24049;DHT22;12250;50.956;4.746;2023-09-30T00:50:37;11.30;99.90
24049;DHT22;12250;50.956;4.746;2023-09-30T00:53:03;11.20;99.90
24049;DHT22;12250;50.956;4.746;2023-09-30T00:55:29;11.20;99.90
24049;DHT22;12250;50.956;4.746;2023-09-30T00:57:56;11.20;99.90
24049;DHT22;12250;50.956;4.746;2023-09-30T01:00:22;11.20;99.90
24049;DHT22;12250;50.956;4.746;2023-09-30T01:02:50;11.30;99.90
24049;DHT22;12250;50.956;4.746;2023-09-30T01:05:19;11.30;99.90
24049;DHT22;12250;50.956;4.746;2023-09-30T01:07:44;11.20;99.90
24049;DHT22;12250;50.956;4.746;2023-09-30T01:10:10;11.30;99.90
24049;DHT22;12250;50.956;4.746;2023-09-30T01:12:36;11.20;99.90
24049;DHT22;12250;50.956;4.746;2023-09-30T01:15:02;11.20;99.90
24049;DHT22;12250;50.956;4.746;2023-09-30T01:17:30;11.30;99.90
24049;DHT22;12250;50.956;4.746;2023-09-30T01:19:57;11.20;99.90
24049;DHT22;12250;50.956;4.746;2023-09-30T01:22:24;11.20;99.90
24049;DHT22;12250;50.956;4.746;2023-09-30T01:24:50;11.20;99.90
24049;DHT22;12250;50.956;4.746;2023-09-30T01:27:16;11.20;99.90
24049;DHT22;12250;50.956;4.746;2023-09-30T01:29:43;11.20;99.90
24049;DHT22;12250;50.956;4.746;2023-09-30T01:32:09;11.10;99.90
24049;DHT22;12250;50.956;4.746;2023-09-30T01:34:35;11.10;99.90
24049;DHT22;12250;50.956;4.746;2023-09-30T01:37:01;11.10;99.90
24049;DHT22;12250;50.956;4.746;2023-09-30T01:39:27;11.00;99.90
24049;DHT22;12250;50.956;4.746;2023-09-30T01:41:52;11.00;99.90
24049;DHT22;12250;50.956;4.746;2023-09-30T01:44:19;11.00;99.90
24049;DHT22;12250;50.956;4.746;2023-09-30T01:46:45;10.90;99.90
24049;DHT22;12250;50.956;4.746;2023-09-30T01:49:11;10.90;99.90
24049;DHT22;12250;50.956;4.746;2023-09-30T01:51:36;10.90;99.90
24049;DHT22;12250;50.956;4.746;2023-09-30T01:54:02;10.80;99.90
24049;DHT22;12250;50.956;4.746;2023-09-30T01:56:28;10.80;99.90
24049;DHT22;12250;50.956;4.746;2023-09-30T01:58:55;10.70;99.90
24049;DHT22;12250;50.956;4.746;2023-09-30T02:01:21;10.70;99.90
24049;DHT22;12250;50.956;4.746;2023-09-30T02:03:47;10.70;99.90
24049;DHT22;12250;50.956;4.746;2023-09-30T02:06:13;10.70;99.90
24049;DHT22;12250;50.956;4.746;2023-09-30T02:08:38;10.70;99.90
24049;DHT22;12250;50.956;4.746;2023-09-30T02:11:04;10.60;99.90
24049;DHT22;12250;50.956;4.746;2023-09-30T02:13:33;10.60;99.90
24049;DHT22;12250;50.956;4.746;2023-09-30T02:16:00;10.50;99.90
24049;DHT22;12250;50.956;4.746;2023-09-30T02:18:26;10.50;99.90
24049;DHT22;12250;50.956;4.746;2023-09-30T02:20:51;10.50;99.90
24049;DHT22;12250;50.956;4.746;2023-09-30T02:23:18;10.50;99.90
24049;DHT22;12250;50.956;4.746;2023-09-30T02:25:44;10.50;99.90
24049;DHT22;12250;50.956;4.746;2023-09-30T02:28:10;10.40;99.90
24049;DHT22;12250;50.956;4.746;2023-09-30T02:30:36;10.40;99.90
24049;DHT22;12250;50.956;4.746;2023-09-30T02:33:02;10.50;99.90
24049;DHT22;12250;50.956;4.746;2023-09-30T02:35:29;10.40;99.90
24049;DHT22;12250;50.956;4.746;2023-09-30T02:37:54;10.40;99.90
24049;DHT22;12250;50.956;4.746;2023-09-30T02:40:20;10.40;99.90
24049;DHT22;12250;50.956;4.746;2023-09-30T02:42:46;10.50;99.90
24049;DHT22;12250;50.956;4.746;2023-09-30T02:45:14;10.50;99.90
24049;DHT22;12250;50.956;4.746;2023-09-30T02:47:42;10.60;99.90
24049;DHT22;12250;50.956;4.746;2023-09-30T02:50:09;10.60;99.90
24049;DHT22;12250;50.956;4.746;2023-09-30T02:52:38;10.60;99.90
24049;DHT22;12250;50.956;4.746;2023-09-30T02:55:10;10.70;99.90
24049;DHT22;12250;50.956;4.746;2023-09-30T02:57:37;10.70;99.90
24049;DHT22;12250;50.956;4.746;2023-09-30T03:00:04;10.70;99.90
24049;DHT22;12250;50.956;4.746;2023-09-30T03:02:55;10.70;99.90
24049;DHT22;12250;50.956;4.746;2023-09-30T03:05:22;10.70;99.90
24049;DHT22;12250;50.956;4.746;2023-09-30T03:07:49;10.70;99.90
24049;DHT22;12250;50.956;4.746;2023-09-30T03:10:16;10.70;99.90
24049;DHT22;12250;50.956;4.746;2023-09-30T03:12:53;10.80;99.90
24049;DHT22;12250;50.956;4.746;2023-09-30T03:15:19;10.70;99.90
24049;DHT22;12250;50.956;4.746;2023-09-30T03:17:45;10.70;99.90
24049;DHT22;12250;50.956;4.746;2023-09-30T03:20:11;10.70;99.90
24049;DHT22;12250;50.956;4.746;2023-09-30T03:22:41;10.70;99.90
24049;DHT22;12250;50.956;4.746;2023-09-30T03:25:14;10.70;99.90
24049;DHT22;12250;50.956;4.746;2023-09-30T03:27:41;10.70;99.90
24049;DHT22;12250;50.956;4.746;2023-09-30T03:30:08;10.70;99.90
24049;DHT22;12250;50.956;4.746;2023-09-30T03:32:34;10.70;99.90
24049;DHT22;12250;50.956;4.746;2023-09-30T03:35:07;10.70;99.90
24049;DHT22;12250;50.956;4.746;2023-09-30T03:37:39;10.70;99.90
24049;DHT22;12250;50.956;4.746;2023-09-30T03:40:05;10.60;99.90
24049;DHT22;12250;50.956;4.746;2023-09-30T03:42:38;10.60;99.90
24049;DHT22;12250;50.956;4.746;2023-09-30T03:45:05;10.50;99.90
24049;DHT22;12250;50.956;4.746;2023-09-30T03:47:36;10.60;99.90
24049;DHT22;12250;50.956;4.746;2023-09-30T03:50:02;10.60;99.90
24049;DHT22;12250;50.956;4.746;2023-09-30T03:52:29;10.60;99.90
24049;DHT22;12250;50.956;4.746;2023-09-30T03:54:55;10.60;99.90
24049;DHT22;12250;50.956;4.746;2023-09-30T03:57:20;10.60;99.90
24049;DHT22;12250;50.956;4.746;2023-09-30T03:59:46;10.50;99.90
24049;DHT22;12250;50.956;4.746;2023-09-30T04:02:12;10.50;99.90
24049;DHT22;12250;50.956;4.746;2023-09-30T04:04:39;10.50;99.90
24049;DHT22;12250;50.956;4.746;2023-09-30T04:07:04;10.50;99.90
24049;DHT22;12250;50.956;4.746;2023-09-30T04:09:32;10.40;99.90
24049;DHT22;12250;50.956;4.746;2023-09-30T04:11:58;10.40;99.90
24049;DHT22;12250;50.956;4.746;2023-09-30T04:14:23;10.40;99.90
24049;DHT22;12250;50.956;4.746;2023-09-30T04:16:50;10.40;99.90
24049;DHT22;12250;50.956;4.746;2023-09-30T04:19:16;10.40;99.90
24049;DHT22;12250;50.956;4.746;2023-09-30T04:21:42;10.40;99.90
24049;DHT22;12250;50.956;4.746;2023-09-30T04:24:08;10.40;99.90
24049;DHT22;12250;50.956;4.746;2023-09-30T04:26:35;10.40;99.90
24049;DHT22;12250;50.956;4.746;2023-09-30T04:29:01;10.40;99.90
24049;DHT22;12250;50.956;4.746;2023-09-30T04:31:30;10.40;99.90
24049;DHT22;12250;50.956;4.746;2023-09-30T04:33:56;10.40;99.90
24049;DHT22;12250;50.956;4.746;2023-09-30T04:36:23;10.30;99.90
24049;DHT22;12250;50.956;4.746;2023-09-30T04:38:49;10.30;99.90
24049;DHT22;12250;50.956;4.746;2023-09-30T04:41:14;10.30;99.90
24049;DHT22;12250;50.956;4.746;2023-09-30T04:43:41;10.20;99.90
24049;DHT22;12250;50.956;4.746;2023-09-30T04:46:09;10.20;99.90
24049;DHT22;12250;50.956;4.746;2023-09-30T04:48:35;10.20;99.90
24049;DHT22;12250;50.956;4.746;2023-09-30T04:51:01;10.10;99.90
24049;DHT22;12250;50.956;4.746;2023-09-30T04:53:30;10.20;99.90
24049;DHT22;12250;50.956;4.746;2023-09-30T04:55:57;10.20;99.90
24049;DHT22;12250;50.956;4.746;2023-09-30T04:58:22;10.20;99.90
24049;DHT22;12250;50.956;4.746;2023-09-30T05:00:50;10.20;99.90
24049;DHT22;12250;50.956;4.746;2023-09-30T05:03:16;10.10;99.90
24049;DHT22;12250;50.956;4.746;2023-09-30T05:05:42;10.00;99.90
24049;DHT22;12250;50.956;4.746;2023-09-30T05:08:07;10.00;99.90
24049;DHT22;12250;50.956;4.746;2023-09-30T05:10:35;10.00;99.90
24049;DHT22;12250;50.956;4.746;2023-09-30T05:13:01;10.10;99.90
24049;DHT22;12250;50.956;4.746;2023-09-30T05:15:28;10.00;99.90
24049;DHT22;12250;50.956;4.746;2023-09-30T05:17:57;10.10;99.90
24049;DHT22;12250;50.956;4.746;2023-09-30T05:20:23;10.00;99.90
24049;DHT22;12250;50.956;4.746;2023-09-30T05:22:49;10.00;99.90
24049;DHT22;12250;50.956;4.746;2023-09-30T05:25:16;10.00;99.90
24049;DHT22;12250;50.956;4.746;2023-09-30T05:27:43;10.00;99.90
24049;DHT22;12250;50.956;4.746;2023-09-30T05:30:09;10.00;99.90
24049;DHT22;12250;50.956;4.746;2023-09-30T05:32:39;10.00;99.90
24049;DHT22;12250;50.956;4.746;2023-09-30T05:35:08;10.00;99.90
24049;DHT22;12250;50.956;4.746;2023-09-30T05:37:43;10.00;99.90
24049;DHT22;12250;50.956;4.746;2023-09-30T05:40:11;10.10;99.90
24049;DHT22;12250;50.956;4.746;2023-09-30T05:42:48;10.10;99.90
24049;DHT22;12250;50.956;4.746;2023-09-30T05:45:16;10.10;99.90
24049;DHT22;12250;50.956;4.746;2023-09-30T05:47:42;10.10;99.90
24049;DHT22;12250;50.956;4.746;2023-09-30T05:50:10;10.20;99.90
24049;DHT22;12250;50.956;4.746;2023-09-30T05:52:40;10.20;99.90
24049;DHT22;12250;50.956;4.746;2023-09-30T05:55:06;10.20;99.90
24049;DHT22;12250;50.956;4.746;2023-09-30T05:57:32;10.20;99.90
24049;DHT22;12250;50.956;4.746;2023-09-30T05:59:58;10.20;99.90
24049;DHT22;12250;50.956;4.746;2023-09-30T06:02:24;10.20;99.90
24049;DHT22;12250;50.956;4.746;2023-09-30T06:04:50;10.20;99.90
24049;DHT22;12250;50.956;4.746;2023-09-30T06:07:18;10.30;99.90
24049;DHT22;12250;50.956;4.746;2023-09-30T06:09:46;10.30;99.90
24049;DHT22;12250;50.956;4.746;2023-09-30T06:12:13;10.40;99.90
24049;DHT22;12250;50.956;4.746;2023-09-30T06:14:39;10.40;99.90
24049;DHT22;12250;50.956;4.746;2023-09-30T06:17:07;10.50;99.90
24049;DHT22;12250;50.956;4.746;2023-09-30T06:19:32;10.60;99.90
24049;DHT22;12250;50.956;4.746;2023-09-30T06:21:59;10.60;99.90
24049;DHT22;12250;50.956;4.746;2023-09-30T06:24:24;10.60;99.90
24049;DHT22;12250;50.956;4.746;2023-09-30T06:26:50;10.70;99.90
24049;DHT22;12250;50.956;4.746;2023-09-30T06:29:17;10.70;99.90
24049;DHT22;12250;50.956;4.746;2023-09-30T06:31:42;10.80;99.90
24049;DHT22;12250;50.956;4.746;2023-09-30T06:34:09;10.80;99.90
24049;DHT22;12250;50.956;4.746;2023-09-30T06:36:36;10.90;99.90
24049;DHT22;12250;50.956;4.746;2023-09-30T06:39:03;11.00;99.90
24049;DHT22;12250;50.956;4.746;2023-09-30T06:41:31;11.00;99.90
24049;DHT22;12250;50.956;4.746;2023-09-30T06:43:57;11.10;99.90
24049;DHT22;12250;50.956;4.746;2023-09-30T06:46:23;11.20;99.90
24049;DHT22;12250;50.956;4.746;2023-09-30T06:48:49;11.20;99.90
24049;DHT22;12250;50.956;4.746;2023-09-30T06:51:17;11.30;99.90
24049;DHT22;12250;50.956;4.746;2023-09-30T06:53:43;11.50;99.90
24049;DHT22;12250;50.956;4.746;2023-09-30T06:56:11;11.50;99.90
24049;DHT22;12250;50.956;4.746;2023-09-30T06:58:38;11.60;99.90
24049;DHT22;12250;50.956;4.746;2023-09-30T07:01:04;11.70;99.90
24049;DHT22;12250;50.956;4.746;2023-09-30T07:03:29;11.90;99.90
24049;DHT22;12250;50.956;4.746;2023-09-30T07:05:56;12.00;99.90
24049;DHT22;12250;50.956;4.746;2023-09-30T07:08:27;12.10;99.90
24049;DHT22;12250;50.956;4.746;2023-09-30T07:10:54;12.20;99.90
24049;DHT22;12250;50.956;4.746;2023-09-30T07:13:19;12.50;99.90
24049;DHT22;12250;50.956;4.746;2023-09-30T07:15:46;12.70;99.90
24049;DHT22;12250;50.956;4.746;2023-09-30T07:18:12;12.80;99.90
24049;DHT22;12250;50.956;4.746;2023-09-30T07:20:37;13.00;99.90
24049;DHT22;12250;50.956;4.746;2023-09-30T07:23:03;13.20;99.90
24049;DHT22;12250;50.956;4.746;2023-09-30T07:25:29;13.50;99.90
24049;DHT22;12250;50.956;4.746;2023-09-30T07:27:58;13.90;99.90
24049;DHT22;12250;50.956;4.746;2023-09-30T07:30:25;14.20;99.90
24049;DHT22;12250;50.956;4.746;2023-09-30T07:32:51;14.30;99.90
24049;DHT22;12250;50.956;4.746;2023-09-30T07:35:17;14.40;99.90
24049;DHT22;12250;50.956;4.746;2023-09-30T07:37:43;14.60;99.90
24049;DHT22;12250;50.956;4.746;2023-09-30T07:40:10;14.80;99.90
24049;DHT22;12250;50.956;4.746;2023-09-30T07:42:36;14.80;99.90
24049;DHT22;12250;50.956;4.746;2023-09-30T07:45:02;14.80;99.90
24049;DHT22;12250;50.956;4.746;2023-09-30T07:47:29;15.10;99.90
24049;DHT22;12250;50.956;4.746;2023-09-30T07:49:56;16.00;99.90
24049;DHT22;12250;50.956;4.746;2023-09-30T07:52:22;18.00;99.90
24049;DHT22;12250;50.956;4.746;2023-09-30T07:54:47;20.10;99.90
24049;DHT22;12250;50.956;4.746;2023-09-30T07:57:13;21.70;99.90
24049;DHT22;12250;50.956;4.746;2023-09-30T07:59:39;23.10;99.90
24049;DHT22;12250;50.956;4.746;2023-09-30T08:02:05;24.50;99.90
24049;DHT22;12250;50.956;4.746;2023-09-30T08:04:32;25.80;99.90
24049;DHT22;12250;50.956;4.746;2023-09-30T08:06:58;26.20;99.90
24049;DHT22;12250;50.956;4.746;2023-09-30T08:09:23;26.50;99.90
24049;DHT22;12250;50.956;4.746;2023-09-30T08:11:50;27.00;99.70
24049;DHT22;12250;50.956;4.746;2023-09-30T08:14:16;27.30;97.70
24049;DHT22;12250;50.956;4.746;2023-09-30T08:16:42;27.70;96.20
24049;DHT22;12250;50.956;4.746;2023-09-30T08:19:08;28.10;94.40
24049;DHT22;12250;50.956;4.746;2023-09-30T08:21:34;28.20;91.40
24049;DHT22;12250;50.956;4.746;2023-09-30T08:24:01;28.40;92.70
24049;DHT22;12250;50.956;4.746;2023-09-30T08:26:26;28.90;93.00
24049;DHT22;12250;50.956;4.746;2023-09-30T08:28:52;29.40;90.40
24049;DHT22;12250;50.956;4.746;2023-09-30T08:31:18;29.60;90.20
24049;DHT22;12250;50.956;4.746;2023-09-30T08:33:44;29.70;88.30
24049;DHT22;12250;50.956;4.746;2023-09-30T08:36:11;30.10;86.80
24049;DHT22;12250;50.956;4.746;2023-09-30T08:38:39;30.40;85.10
24049;DHT22;12250;50.956;4.746;2023-09-30T08:41:06;31.10;84.10
24049;DHT22;12250;50.956;4.746;2023-09-30T08:43:41;31.70;81.40
24049;DHT22;12250;50.956;4.746;2023-09-30T08:46:07;32.00;78.90
24049;DHT22;12250;50.956;4.746;2023-09-30T08:48:36;32.40;76.10
24049;DHT22;12250;50.956;4.746;2023-09-30T08:51:02;32.30;75.80
24049;DHT22;12250;50.956;4.746;2023-09-30T08:53:32;32.50;72.40
24049;DHT22;12250;50.956;4.746;2023-09-30T08:55:58;32.70;72.30
24049;DHT22;12250;50.956;4.746;2023-09-30T08:58:28;33.10;70.60
24049;DHT22;12250;50.956;4.746;2023-09-30T09:00:55;33.30;70.80
24049;DHT22;12250;50.956;4.746;2023-09-30T09:03:22;33.20;68.50
24049;DHT22;12250;50.956;4.746;2023-09-30T09:05:57;33.30;67.90
24049;DHT22;12250;50.956;4.746;2023-09-30T09:08:26;33.10;67.90
24049;DHT22;12250;50.956;4.746;2023-09-30T09:10:59;33.20;68.90
24049;DHT22;12250;50.956;4.746;2023-09-30T09:13:26;33.40;67.60
24049;DHT22;12250;50.956;4.746;2023-09-30T09:16:08;33.90;65.00
24049;DHT22;12250;50.956;4.746;2023-09-30T09:18:34;34.30;65.90
24049;DHT22;12250;50.956;4.746;2023-09-30T09:21:21;34.60;63.70
24049;DHT22;12250;50.956;4.746;2023-09-30T09:23:49;34.40;61.90
24049;DHT22;12250;50.956;4.746;2023-09-30T09:26:26;34.70;62.80
24049;DHT22;12250;50.956;4.746;2023-09-30T09:29:02;34.80;62.00
24049;DHT22;12250;50.956;4.746;2023-09-30T09:31:32;34.90;59.60
24049;DHT22;12250;50.956;4.746;2023-09-30T09:34:00;34.40;59.80
24049;DHT22;12250;50.956;4.746;2023-09-30T09:36:40;34.40;59.90
24049;DHT22;12250;50.956;4.746;2023-09-30T09:39:07;34.60;59.20
24049;DHT22;12250;50.956;4.746;2023-09-30T09:41:32;35.00;59.80
24049;DHT22;12250;50.956;4.746;2023-09-30T09:43:59;35.20;57.50
24049;DHT22;12250;50.956;4.746;2023-09-30T09:46:27;35.50;57.10
24049;DHT22;12250;50.956;4.746;2023-09-30T09:48:54;35.40;56.60
24049;DHT22;12250;50.956;4.746;2023-09-30T09:51:23;35.00;56.50
24049;DHT22;12250;50.956;4.746;2023-09-30T09:53:50;34.60;58.10
24049;DHT22;12250;50.956;4.746;2023-09-30T09:56:17;34.80;57.60
24049;DHT22;12250;50.956;4.746;2023-09-30T09:58:44;34.30;57.60
24049;DHT22;12250;50.956;4.746;2023-09-30T10:01:13;34.40;59.60
24049;DHT22;12250;50.956;4.746;2023-09-30T10:03:39;34.60;57.50
24049;DHT22;12250;50.956;4.746;2023-09-30T10:06:05;34.80;56.70
24049;DHT22;12250;50.956;4.746;2023-09-30T10:08:43;34.00;57.30
24049;DHT22;12250;50.956;4.746;2023-09-30T10:11:20;33.60;58.20
24049;DHT22;12250;50.956;4.746;2023-09-30T10:13:56;34.00;59.00
24049;DHT22;12250;50.956;4.746;2023-09-30T10:19:12;33.30;58.40
24049;DHT22;12250;50.956;4.746;2023-09-30T10:21:39;31.10;61.60
24049;DHT22;12250;50.956;4.746;2023-09-30T10:40:48;27.70;71.70
24049;DHT22;12250;50.956;4.746;2023-09-30T10:43:29;27.60;71.70
24049;DHT22;12250;50.956;4.746;2023-09-30T10:46:02;27.90;71.80
24049;DHT22;12250;50.956;4.746;2023-09-30T10:50:54;28.50;69.90
24049;DHT22;12250;50.956;4.746;2023-09-30T10:53:22;28.40;70.30
24049;DHT22;12250;50.956;4.746;2023-09-30T10:55:57;28.20;73.00
24049;DHT22;12250;50.956;4.746;2023-09-30T10:58:50;28.10;73.90
24049;DHT22;12250;50.956;4.746;2023-09-30T11:01:18;27.90;74.10
24049;DHT22;12250;50.956;4.746;2023-09-30T11:03:45;27.60;73.80
24049;DHT22;12250;50.956;4.746;2023-09-30T11:06:15;27.20;72.40
24049;DHT22;12250;50.956;4.746;2023-09-30T11:11:17;26.50;75.70
24049;DHT22;12250;50.956;4.746;2023-09-30T11:13:43;25.90;77.40
24049;DHT22;12250;50.956;4.746;2023-09-30T11:16:08;25.60;77.90
24049;DHT22;12250;50.956;4.746;2023-09-30T11:18:34;25.20;78.70
24049;DHT22;12250;50.956;4.746;2023-09-30T11:21:10;25.10;81.40
24049;DHT22;12250;50.956;4.746;2023-09-30T11:23:38;25.00;79.80
24049;DHT22;12250;50.956;4.746;2023-09-30T11:26:06;25.00;80.70
24049;DHT22;12250;50.956;4.746;2023-09-30T11:28:39;24.90;83.20
24049;DHT22;12250;50.956;4.746;2023-09-30T11:31:11;24.80;81.80
24049;DHT22;12250;50.956;4.746;2023-09-30T11:33:55;24.70;82.50
24049;DHT22;12250;50.956;4.746;2023-09-30T11:36:23;24.80;81.10
24049;DHT22;12250;50.956;4.746;2023-09-30T11:38:50;24.80;79.90
24049;DHT22;12250;50.956;4.746;2023-09-30T11:41:18;24.50;80.00
24049;DHT22;12250;50.956;4.746;2023-09-30T11:44:10;24.10;83.00
24049;DHT22;12250;50.956;4.746;2023-09-30T11:47:02;23.80;84.50
24049;DHT22;12250;50.956;4.746;2023-09-30T11:49:38;23.60;85.20
24049;DHT22;12250;50.956;4.746;2023-09-30T11:52:08;23.30;86.30
24049;DHT22;12250;50.956;4.746;2023-09-30T11:57:07;22.90;89.80
24049;DHT22;12250;50.956;4.746;2023-09-30T11:59:39;22.80;88.60
24049;DHT22;12250;50.956;4.746;2023-09-30T12:02:07;22.80;89.20
24049;DHT22;12250;50.956;4.746;2023-09-30T12:04:37;22.90;87.40
24049;DHT22;12250;50.956;4.746;2023-09-30T12:07:03;22.90;85.70
24049;DHT22;12250;50.956;4.746;2023-09-30T12:09:29;22.90;87.00
24049;DHT22;12250;50.956;4.746;2023-09-30T12:11:57;23.00;87.60
24049;DHT22;12250;50.956;4.746;2023-09-30T12:14:24;23.10;86.50
24049;DHT22;12250;50.956;4.746;2023-09-30T12:16:50;23.10;84.30
24049;DHT22;12250;50.956;4.746;2023-09-30T12:19:19;23.20;81.80
24049;DHT22;12250;50.956;4.746;2023-09-30T12:21:46;23.10;83.30
24049;DHT22;12250;50.956;4.746;2023-09-30T12:24:17;23.30;82.10
24049;DHT22;12250;50.956;4.746;2023-09-30T12:26:46;23.20;81.00
24049;DHT22;12250;50.956;4.746;2023-09-30T12:29:16;23.10;81.90
24049;DHT22;12250;50.956;4.746;2023-09-30T12:31:46;23.20;84.90
24049;DHT22;12250;50.956;4.746;2023-09-30T12:34:13;23.40;82.30
24049;DHT22;12250;50.956;4.746;2023-09-30T12:36:39;23.40;80.40
24049;DHT22;12250;50.956;4.746;2023-09-30T12:39:05;23.40;79.50
24049;DHT22;12250;50.956;4.746;2023-09-30T12:41:40;23.20;83.60
24049;DHT22;12250;50.956;4.746;2023-09-30T12:44:07;22.90;83.30
24049;DHT22;12250;50.956;4.746;2023-09-30T12:46:33;22.80;84.80
24049;DHT22;12250;50.956;4.746;2023-09-30T12:49:01;22.90;86.60
24049;DHT22;12250;50.956;4.746;2023-09-30T12:51:28;23.10;83.80
24049;DHT22;12250;50.956;4.746;2023-09-30T12:53:54;23.10;82.10
24049;DHT22;12250;50.956;4.746;2023-09-30T12:56:19;23.10;84.20
24049;DHT22;12250;50.956;4.746;2023-09-30T12:58:45;23.10;83.50
24049;DHT22;12250;50.956;4.746;2023-09-30T13:01:11;23.10;85.30
24049;DHT22;12250;50.956;4.746;2023-09-30T13:03:37;23.40;82.00
24049;DHT22;12250;50.956;4.746;2023-09-30T13:06:03;23.40;80.80
24049;DHT22;12250;50.956;4.746;2023-09-30T13:08:29;23.60;82.20
24049;DHT22;12250;50.956;4.746;2023-09-30T13:11:00;23.90;79.70
24049;DHT22;12250;50.956;4.746;2023-09-30T13:13:29;24.10;81.70
24049;DHT22;12250;50.956;4.746;2023-09-30T13:15:57;24.50;81.80
24049;DHT22;12250;50.956;4.746;2023-09-30T13:18:23;24.80;81.40
24049;DHT22;12250;50.956;4.746;2023-09-30T13:20:48;25.00;78.90
24049;DHT22;12250;50.956;4.746;2023-09-30T13:23:14;25.30;77.60
24049;DHT22;12250;50.956;4.746;2023-09-30T13:25:40;25.50;78.20
24049;DHT22;12250;50.956;4.746;2023-09-30T13:28:05;25.60;77.90
24049;DHT22;12250;50.956;4.746;2023-09-30T13:30:31;25.80;76.50
24049;DHT22;12250;50.956;4.746;2023-09-30T13:32:57;25.80;74.20
24049;DHT22;12250;50.956;4.746;2023-09-30T13:35:23;25.80;73.60
24049;DHT22;12250;50.956;4.746;2023-09-30T13:37:49;25.90;75.60
24049;DHT22;12250;50.956;4.746;2023-09-30T13:40:14;25.90;75.40
24049;DHT22;12250;50.956;4.746;2023-09-30T13:42:41;26.00;75.20
24049;DHT22;12250;50.956;4.746;2023-09-30T13:45:08;26.00;72.70
24049;DHT22;12250;50.956;4.746;2023-09-30T13:47:34;25.70;73.00
24049;DHT22;12250;50.956;4.746;2023-09-30T13:50:00;25.50;76.10
24049;DHT22;12250;50.956;4.746;2023-09-30T13:52:26;25.40;74.60
24049;DHT22;12250;50.956;4.746;2023-09-30T13:54:52;25.50;73.10
24049;DHT22;12250;50.956;4.746;2023-09-30T13:57:18;25.30;74.80
24049;DHT22;12250;50.956;4.746;2023-09-30T13:59:43;25.20;76.10
24049;DHT22;12250;50.956;4.746;2023-09-30T14:02:09;25.00;75.80
24049;DHT22;12250;50.956;4.746;2023-09-30T14:04:35;25.00;75.30
24049;DHT22;12250;50.956;4.746;2023-09-30T14:07:04;24.80;75.40
24049;DHT22;12250;50.956;4.746;2023-09-30T14:09:31;24.70;77.40
24049;DHT22;12250;50.956;4.746;2023-09-30T14:11:56;24.50;73.90
24049;DHT22;12250;50.956;4.746;2023-09-30T14:14:24;24.50;76.20
24049;DHT22;12250;50.956;4.746;2023-09-30T14:16:50;24.60;78.40
24049;DHT22;12250;50.956;4.746;2023-09-30T14:19:16;24.80;78.40
24049;DHT22;12250;50.956;4.746;2023-09-30T14:21:41;24.80;78.00
24049;DHT22;12250;50.956;4.746;2023-09-30T14:24:07;24.70;78.50
24049;DHT22;12250;50.956;4.746;2023-09-30T14:26:33;24.40;79.40
24049;DHT22;12250;50.956;4.746;2023-09-30T14:28:59;24.40;80.10
24049;DHT22;12250;50.956;4.746;2023-09-30T14:31:25;24.50;80.60
24049;DHT22;12250;50.956;4.746;2023-09-30T14:33:51;24.50;78.70
24049;DHT22;12250;50.956;4.746;2023-09-30T14:36:17;24.50;76.60
24049;DHT22;12250;50.956;4.746;2023-09-30T14:38:44;24.40;78.10
24049;DHT22;12250;50.956;4.746;2023-09-30T14:41:10;24.30;80.20
24049;DHT22;12250;50.956;4.746;2023-09-30T14:43:38;24.30;82.80
24049;DHT22;12250;50.956;4.746;2023-09-30T14:46:04;24.30;81.30
24049;DHT22;12250;50.956;4.746;2023-09-30T14:48:30;24.30;79.90
24049;DHT22;12250;50.956;4.746;2023-09-30T14:50:56;24.30;79.60
24049;DHT22;12250;50.956;4.746;2023-09-30T14:53:23;24.30;79.80
24049;DHT22;12250;50.956;4.746;2023-09-30T14:55:48;24.20;79.60
24049;DHT22;12250;50.956;4.746;2023-09-30T14:58:14;24.10;81.10
24049;DHT22;12250;50.956;4.746;2023-09-30T15:00:40;23.80;82.00
24049;DHT22;12250;50.956;4.746;2023-09-30T15:03:06;23.70;82.10
24049;DHT22;12250;50.956;4.746;2023-09-30T15:05:32;23.50;80.80
24049;DHT22;12250;50.956;4.746;2023-09-30T15:07:59;23.40;81.00
24049;DHT22;12250;50.956;4.746;2023-09-30T15:10:27;23.20;80.70
24049;DHT22;12250;50.956;4.746;2023-09-30T15:12:54;23.10;81.00
24049;DHT22;12250;50.956;4.746;2023-09-30T15:15:20;23.00;80.20
24049;DHT22;12250;50.956;4.746;2023-09-30T15:17:45;22.90;81.60
24049;DHT22;12250;50.956;4.746;2023-09-30T15:20:11;22.80;83.10
24049;DHT22;12250;50.956;4.746;2023-09-30T15:22:37;22.80;84.50
24049;DHT22;12250;50.956;4.746;2023-09-30T15:25:03;22.70;85.60
24049;DHT22;12250;50.956;4.746;2023-09-30T15:27:30;22.40;85.20
24049;DHT22;12250;50.956;4.746;2023-09-30T15:29:58;22.40;86.20
24049;DHT22;12250;50.956;4.746;2023-09-30T15:32:24;22.40;84.00
24049;DHT22;12250;50.956;4.746;2023-09-30T15:34:50;22.20;83.60
24049;DHT22;12250;50.956;4.746;2023-09-30T15:37:15;22.20;83.80
24049;DHT22;12250;50.956;4.746;2023-09-30T15:39:42;22.10;84.70
24049;DHT22;12250;50.956;4.746;2023-09-30T15:42:08;21.90;86.90
24049;DHT22;12250;50.956;4.746;2023-09-30T15:44:41;21.80;88.50
24049;DHT22;12250;50.956;4.746;2023-09-30T15:47:07;21.60;89.50
24049;DHT22;12250;50.956;4.746;2023-09-30T15:49:34;21.50;90.60
24049;DHT22;12250;50.956;4.746;2023-09-30T15:52:00;21.30;91.40
24049;DHT22;12250;50.956;4.746;2023-09-30T15:54:26;21.20;91.90
24049;DHT22;12250;50.956;4.746;2023-09-30T15:56:51;21.10;92.30
24049;DHT22;12250;50.956;4.746;2023-09-30T15:59:17;21.00;92.60